createdAt,value
2018-05-14T00:00:54.231Z,89.20
2018-05-14T00:03:21.787Z,87.90
2018-05-14T00:05:50.073Z,83.40
2018-05-14T00:08:18.386Z,84.60
2018-05-14T00:10:45.914Z,84.60
2018-05-14T00:13:13.480Z,88.50
2018-05-14T00:15:41.036Z,87.70
2018-05-14T00:18:08.594Z,88.40
2018-05-14T00:20:36.101Z,89.40
2018-05-14T00:23:03.680Z,88.80
2018-05-14T00:25:31.217Z,89.10
2018-05-14T00:27:58.738Z,88.60
2018-05-14T00:30:26.260Z,89.60
2018-05-14T00:32:54.568Z,89.10
2018-05-14T00:35:22.128Z,89.10
2018-05-14T00:37:49.658Z,86.90
2018-05-14T00:40:17.973Z,89.00
2018-05-14T00:42:45.513Z,89.00
2018-05-14T00:45:13.812Z,87.80
2018-05-14T00:47:41.324Z,87.80
2018-05-14T00:50:08.849Z,87.00
2018-05-14T00:52:36.356Z,86.20
2018-05-14T00:55:16.430Z,90.00
2018-05-14T00:57:43.971Z,90.00
2018-05-14T01:00:12.297Z,87.80
2018-05-14T01:02:39.793Z,87.80
2018-05-14T01:05:07.362Z,86.60
2018-05-14T01:07:35.660Z,88.00
2018-05-14T01:10:03.191Z,88.00
2018-05-14T01:12:31.489Z,89.00
2018-05-14T01:14:59.781Z,89.10
2018-05-14T01:17:27.308Z,89.00
2018-05-14T01:19:55.594Z,88.60
2018-05-14T01:22:23.861Z,89.30
2018-05-14T01:24:57.955Z,90.20
2018-05-14T01:27:25.448Z,90.20
2018-05-14T01:29:52.977Z,90.30
2018-05-14T01:32:20.522Z,90.00
2018-05-14T01:34:48.120Z,89.10
2018-05-14T01:37:16.395Z,90.00
2018-05-14T01:39:43.915Z,90.00
2018-05-14T01:42:11.424Z,88.60
2018-05-14T01:44:38.986Z,88.10
2018-05-14T01:47:06.530Z,88.10
2018-05-14T01:49:34.070Z,86.90
2018-05-14T01:52:01.592Z,85.90
2018-05-14T01:54:29.137Z,84.70
2018-05-14T01:56:56.655Z,87.00
2018-05-14T01:59:24.946Z,85.00
2018-05-14T02:01:53.229Z,87.60
2018-05-14T02:04:20.750Z,87.60
2018-05-14T02:06:48.282Z,88.70
2018-05-14T02:09:15.769Z,88.70
2018-05-14T02:11:43.276Z,89.10
2018-05-14T02:14:10.782Z,87.50
2018-05-14T02:16:38.272Z,87.80
2018-05-14T02:19:05.794Z,88.90
2018-05-14T02:21:33.385Z,88.80
2018-05-14T02:24:01.624Z,88.50
2018-05-14T02:26:29.149Z,88.50
2018-05-14T02:28:56.692Z,88.80
2018-05-14T02:31:24.961Z,89.40
2018-05-14T02:33:53.233Z,86.60
2018-05-14T02:36:20.767Z,86.60
2018-05-14T02:38:48.289Z,86.60
2018-05-14T02:41:15.811Z,86.80
2018-05-14T02:43:44.816Z,89.30
2018-05-14T02:46:13.114Z,88.80
2018-05-14T02:48:40.646Z,88.70
2018-05-14T02:51:08.908Z,89.20
2018-05-14T02:53:36.444Z,89.20
2018-05-14T02:56:03.999Z,88.90
2018-05-14T02:58:31.497Z,90.10
2018-05-14T03:00:59.793Z,90.10
2018-05-14T03:03:27.304Z,90.10
2018-05-14T03:05:54.862Z,90.30
2018-05-14T03:08:22.378Z,90.40
2018-05-14T03:10:49.926Z,90.50
2018-05-14T03:13:18.188Z,90.60
2018-05-14T03:15:46.502Z,90.40
2018-05-14T03:18:14.049Z,90.40
2018-05-14T03:20:42.309Z,88.60
2018-05-14T03:23:10.597Z,88.40
2018-05-14T03:25:39.036Z,88.40
2018-05-14T03:28:06.554Z,86.80
2018-05-14T03:30:34.059Z,86.50
2018-05-14T03:33:01.586Z,84.90
2018-05-14T03:35:29.133Z,86.20
2018-05-14T03:37:56.633Z,89.00
2018-05-14T03:40:24.131Z,89.20
2018-05-14T03:42:51.618Z,88.20
2018-05-14T03:45:19.135Z,90.10
2018-05-14T03:47:47.414Z,90.60
2018-05-14T03:50:15.697Z,90.30
2018-05-14T03:52:43.256Z,90.30
2018-05-14T03:55:10.764Z,90.00
2018-05-14T03:57:38.318Z,88.50
2018-05-14T04:00:17.774Z,89.00
2018-05-14T04:02:57.151Z,89.50
2018-05-14T04:08:23.335Z,90.10
2018-05-14T04:10:50.827Z,89.20
2018-05-14T04:13:18.351Z,86.50
2018-05-14T04:15:45.871Z,87.20
2018-05-14T04:18:13.304Z,88.60
2018-05-14T04:20:41.755Z,89.00
2018-05-14T04:23:09.279Z,88.30
2018-05-14T04:25:36.752Z,88.30
2018-05-14T04:28:04.425Z,89.10
2018-05-14T04:30:31.950Z,88.40
2018-05-14T04:32:59.512Z,87.80
2018-05-14T04:35:27.027Z,89.20
2018-05-14T04:37:54.553Z,88.80
2018-05-14T04:40:22.052Z,89.60
2018-05-14T04:42:49.574Z,88.60
2018-05-14T04:45:17.058Z,89.20
2018-05-14T04:47:44.590Z,89.80
2018-05-14T04:50:12.085Z,89.40
2018-05-14T04:52:39.643Z,89.20
2018-05-14T04:55:07.128Z,89.40
2018-05-14T04:57:35.398Z,90.20
2018-05-14T05:00:02.940Z,90.10
2018-05-14T05:02:30.469Z,90.20
2018-05-14T05:04:57.996Z,90.70
2018-05-14T05:07:25.507Z,90.90
2018-05-14T05:09:53.072Z,91.10
2018-05-14T05:12:21.363Z,90.40
2018-05-14T05:14:49.633Z,90.00
2018-05-14T05:17:17.165Z,90.00
2018-05-14T05:19:44.616Z,90.30
2018-05-14T05:22:12.106Z,90.40
2018-05-14T05:27:13.828Z,90.40
2018-05-14T05:29:41.575Z,90.70
2018-05-14T05:32:09.105Z,90.10
2018-05-14T05:34:36.959Z,88.70
2018-05-14T05:37:04.356Z,89.00
2018-05-14T05:39:32.152Z,88.40
2018-05-14T05:41:59.707Z,89.40
2018-05-14T05:44:27.975Z,87.10
2018-05-14T05:46:55.488Z,87.10
2018-05-14T05:49:22.994Z,87.60
2018-05-14T05:51:50.538Z,86.60
2018-05-14T05:54:18.077Z,88.20
2018-05-14T05:56:46.386Z,90.00
2018-05-14T05:59:13.909Z,90.00
2018-05-14T06:01:42.217Z,89.40
2018-05-14T06:04:09.791Z,89.30
2018-05-14T06:06:37.307Z,90.00
2018-05-14T06:09:05.586Z,89.30
2018-05-14T06:11:33.858Z,89.00
2018-05-14T06:14:01.438Z,89.00
2018-05-14T06:16:29.031Z,89.50
2018-05-14T06:18:56.622Z,89.20
2018-05-14T06:21:24.141Z,89.10
2018-05-14T06:23:51.695Z,88.80
2018-05-14T06:26:19.209Z,88.80
2018-05-14T06:28:46.737Z,87.60
2018-05-14T06:31:14.280Z,87.40
2018-05-14T06:33:41.795Z,87.60
2018-05-14T06:36:09.341Z,87.70
2018-05-14T06:38:36.876Z,86.40
2018-05-14T06:41:04.402Z,88.00
2018-05-14T06:43:31.923Z,86.80
2018-05-14T06:46:00.211Z,86.30
2018-05-14T06:48:28.510Z,87.60
2018-05-14T06:51:03.467Z,87.60
2018-05-14T06:53:31.060Z,87.40
2018-05-14T06:55:58.583Z,86.00
2018-05-14T06:58:27.585Z,86.60
2018-05-14T07:00:55.207Z,87.10
2018-05-14T07:03:23.519Z,85.20
2018-05-14T07:05:51.145Z,85.40
2018-05-14T07:08:18.642Z,85.70
2018-05-14T07:10:56.145Z,85.80
2018-05-14T07:13:23.661Z,86.50
2018-05-14T07:15:51.223Z,86.30
2018-05-14T07:18:18.777Z,83.60
2018-05-14T07:20:47.442Z,86.50
2018-05-14T07:23:15.796Z,86.40
2018-05-14T07:25:43.333Z,86.40
2018-05-14T07:28:10.929Z,85.50
2018-05-14T07:30:38.530Z,85.40
2018-05-14T07:33:06.056Z,86.70
2018-05-14T07:35:34.393Z,85.60
2018-05-14T07:38:01.973Z,85.50
2018-05-14T07:40:29.632Z,84.40
2018-05-14T07:42:58.429Z,85.50
2018-05-14T07:45:26.024Z,85.00
2018-05-14T07:47:53.604Z,85.20
2018-05-14T07:50:21.929Z,84.80
2018-05-14T07:52:49.603Z,83.90
2018-05-14T07:55:17.121Z,85.70
2018-05-14T07:57:44.709Z,85.00
2018-05-14T08:00:13.369Z,85.00
2018-05-14T08:02:41.237Z,84.40
2018-05-14T08:05:21.497Z,82.40
2018-05-14T08:07:49.047Z,81.90
2018-05-14T08:10:19.189Z,83.00
2018-05-14T08:12:50.945Z,81.60
2018-05-14T08:15:44.769Z,82.90
2018-05-14T08:26:31.358Z,84.50
2018-05-14T08:29:03.465Z,84.50
2018-05-14T08:31:31.031Z,83.60
2018-05-14T08:34:00.458Z,82.80
2018-05-14T08:36:28.886Z,84.40
2018-05-14T08:38:57.281Z,84.40
2018-05-14T08:41:24.770Z,84.60
2018-05-14T08:43:53.073Z,85.50
2018-05-14T08:46:20.620Z,85.40
2018-05-14T08:48:48.953Z,85.10
2018-05-14T08:51:16.484Z,82.60
2018-05-14T08:53:44.514Z,84.00
2018-05-14T08:56:31.939Z,84.70
2018-05-14T08:59:00.230Z,83.80
2018-05-14T09:10:19.455Z,82.10
2018-05-14T09:12:46.901Z,82.60
2018-05-14T09:15:15.204Z,79.10
2018-05-14T09:17:42.778Z,79.00
2018-05-14T09:20:10.355Z,79.90
2018-05-14T09:22:37.849Z,78.80
2018-05-14T09:25:05.355Z,80.60
2018-05-14T09:27:32.860Z,78.90
2018-05-14T09:30:00.460Z,77.80
2018-05-14T09:32:27.863Z,76.50
2018-05-14T09:34:55.417Z,78.90
2018-05-14T09:37:22.921Z,78.50
2018-05-14T09:39:50.437Z,78.60
2018-05-14T09:42:17.957Z,76.80
2018-05-14T09:44:45.461Z,77.80
2018-05-14T09:47:12.977Z,81.40
2018-05-14T09:49:40.507Z,78.90
2018-05-14T09:52:08.041Z,78.60
2018-05-14T09:57:41.408Z,79.10
2018-05-14T10:03:04.477Z,78.60
2018-05-14T10:05:31.990Z,78.20
2018-05-14T10:08:00.269Z,81.20
2018-05-14T10:10:27.870Z,80.40
2018-05-14T10:12:55.451Z,79.90
2018-05-14T10:15:23.765Z,80.50
2018-05-14T10:18:09.978Z,80.50
2018-05-14T10:45:10.616Z,78.30
2018-05-14T10:47:38.147Z,78.00
2018-05-14T10:50:06.406Z,78.20
2018-05-14T10:55:17.930Z,75.90
2018-05-14T10:57:46.275Z,78.80
2018-05-14T11:00:13.779Z,78.80
2018-05-14T11:02:42.250Z,78.00
2018-05-14T11:05:22.596Z,77.40
2018-05-14T11:07:50.851Z,79.40
2018-05-14T11:10:18.338Z,79.40
2018-05-14T11:12:46.596Z,78.70
2018-05-14T11:15:15.481Z,78.60
2018-05-14T11:17:43.810Z,79.50
2018-05-14T11:20:11.418Z,79.50
2018-05-14T11:22:51.350Z,77.00
2018-05-14T11:25:18.799Z,76.90
2018-05-14T11:27:48.376Z,77.40
2018-05-14T11:30:15.989Z,79.00
2018-05-14T11:32:43.473Z,76.80
2018-05-14T11:35:11.683Z,77.60
2018-05-14T11:37:39.257Z,77.50
2018-05-14T11:40:06.718Z,77.60
2018-05-14T11:42:34.215Z,78.80
2018-05-14T11:45:04.669Z,75.20
2018-05-14T11:47:32.209Z,78.20
2018-05-14T11:50:00.539Z,76.40
2018-05-14T11:52:28.040Z,76.40
2018-05-14T11:54:55.557Z,77.80
2018-05-14T11:57:23.089Z,79.00
2018-05-14T11:59:50.606Z,78.70
2018-05-14T12:02:18.145Z,77.70
2018-05-14T12:04:45.697Z,77.20
2018-05-14T12:07:13.233Z,77.40
2018-05-14T12:09:41.331Z,77.90
2018-05-14T12:12:08.963Z,76.70
2018-05-14T12:14:36.451Z,76.50
2018-05-14T12:17:04.006Z,76.80
2018-05-14T12:19:32.437Z,77.30
2018-05-14T12:22:05.028Z,78.20
2018-05-14T12:24:32.587Z,77.80
2018-05-14T12:27:28.482Z,78.40
2018-05-14T12:29:56.782Z,77.60
2018-05-14T12:32:43.107Z,77.50
2018-05-14T12:35:14.312Z,79.10
2018-05-14T12:37:42.664Z,77.80
2018-05-14T12:40:10.209Z,77.70
2018-05-14T12:42:50.016Z,77.60
2018-05-14T12:45:25.090Z,77.00
2018-05-14T12:47:56.923Z,77.40
2018-05-14T12:50:27.892Z,77.40
2018-05-14T12:53:07.628Z,74.60
2018-05-14T12:56:13.788Z,76.70
2018-05-14T12:58:42.045Z,79.60
2018-05-14T13:01:09.701Z,79.50
2018-05-14T13:03:37.606Z,79.60
2018-05-14T13:06:05.620Z,78.90
2018-05-14T13:11:17.414Z,78.80
2018-05-14T13:13:45.840Z,79.70
2018-05-14T13:16:13.353Z,79.60
2018-05-14T13:18:42.983Z,78.80
2018-05-14T13:21:10.531Z,77.90
2018-05-14T13:23:38.045Z,78.60
2018-05-14T13:26:06.306Z,78.60
2018-05-14T13:28:33.776Z,78.60
2018-05-14T13:31:02.064Z,77.60
2018-05-14T13:33:30.389Z,74.70
2018-05-14T13:35:57.864Z,74.60
2018-05-14T13:38:25.372Z,76.90
2018-05-14T13:40:52.893Z,76.20
2018-05-14T13:43:20.594Z,77.30
2018-05-14T13:45:49.311Z,76.10
2018-05-14T13:48:16.917Z,76.90
2018-05-14T13:50:45.577Z,78.40
2018-05-14T13:53:13.161Z,79.60
2018-05-14T13:55:40.752Z,80.70
2018-05-14T13:58:08.300Z,81.20
2018-05-14T14:00:36.611Z,79.90
2018-05-14T14:03:14.081Z,79.70
2018-05-14T14:05:41.613Z,81.10
2018-05-14T14:18:16.980Z,80.90
2018-05-14T14:29:50.535Z,79.00
2018-05-14T15:05:44.828Z,77.60
2018-05-14T15:08:12.346Z,85.50
2018-05-14T15:10:39.861Z,87.60
2018-05-14T15:13:08.124Z,88.30
2018-05-14T15:15:35.641Z,88.20
2018-05-14T15:18:21.134Z,87.60
2018-05-14T15:21:09.856Z,87.50
2018-05-14T15:23:37.407Z,87.10
2018-05-14T15:26:04.929Z,87.50
2018-05-14T15:28:37.388Z,87.00
2018-05-14T15:31:19.671Z,85.20
2018-05-14T15:33:47.317Z,85.30
2018-05-14T15:36:38.017Z,85.20
2018-05-14T15:39:05.540Z,85.80
2018-05-14T15:41:38.088Z,86.70
2018-05-14T15:44:20.461Z,86.40
2018-05-14T15:46:47.961Z,86.10
2018-05-14T15:49:15.453Z,85.30
2018-05-14T15:51:42.909Z,86.60
2018-05-14T15:54:11.149Z,88.60
2018-05-14T15:56:38.625Z,88.20
2018-05-14T15:59:06.108Z,87.80
2018-05-14T16:01:34.325Z,88.60
2018-05-14T16:04:01.905Z,88.60
2018-05-14T16:06:29.391Z,87.90
2018-05-14T16:09:07.835Z,88.40
2018-05-14T16:11:35.294Z,88.90
2018-05-14T16:14:06.831Z,88.70
2018-05-14T16:16:35.076Z,88.00
2018-05-14T16:19:02.753Z,87.90
2018-05-14T16:21:30.268Z,88.30
2018-05-14T16:23:57.769Z,88.60
2018-05-14T16:26:26.000Z,87.60
2018-05-14T16:28:53.586Z,87.50
2018-05-14T16:31:21.108Z,88.00
2018-05-14T16:33:48.689Z,88.80
2018-05-14T16:36:16.204Z,89.00
2018-05-14T16:38:43.732Z,89.30
2018-05-14T16:41:11.233Z,89.40
2018-05-14T16:43:38.883Z,88.20
2018-05-14T16:46:07.137Z,87.80
2018-05-14T16:48:34.632Z,87.80
2018-05-14T16:51:02.148Z,89.20
2018-05-14T16:53:29.676Z,88.40
2018-05-14T16:55:57.322Z,88.10
2018-05-14T16:58:24.845Z,87.90
2018-05-14T17:00:52.408Z,88.80
2018-05-14T17:03:20.713Z,88.80
2018-05-14T17:05:48.331Z,88.80
2018-05-14T17:08:16.632Z,89.60
2018-05-14T17:10:44.157Z,89.50
2018-05-14T17:13:11.671Z,90.00
2018-05-14T17:15:39.188Z,90.20
2018-05-14T17:18:07.469Z,89.90
2018-05-14T17:20:35.012Z,89.90
2018-05-14T17:23:02.526Z,89.30
2018-05-14T17:25:30.065Z,89.40
2018-05-14T17:27:57.929Z,90.00
2018-05-14T17:30:26.229Z,89.30
2018-05-14T17:32:53.760Z,89.30
2018-05-14T17:35:21.306Z,89.30
2018-05-14T17:37:50.240Z,89.10
2018-05-14T17:40:17.805Z,89.70
2018-05-14T17:42:45.369Z,89.20
2018-05-14T17:45:12.919Z,89.70
2018-05-14T17:47:40.490Z,89.20
2018-05-14T17:50:08.020Z,90.00
2018-05-14T17:52:36.340Z,89.60
2018-05-14T17:55:03.878Z,89.60
2018-05-14T17:57:31.453Z,89.50
2018-05-14T17:59:58.974Z,89.30
2018-05-14T18:02:27.245Z,89.90
2018-05-14T18:04:54.767Z,89.90
2018-05-14T18:07:22.299Z,89.90
2018-05-14T18:09:49.850Z,89.10
2018-05-14T18:12:17.389Z,89.10
2018-05-14T18:14:44.925Z,89.20
2018-05-14T18:17:12.442Z,89.90
2018-05-14T18:19:45.755Z,88.60
2018-05-14T18:25:14.160Z,90.10
2018-05-14T18:27:47.525Z,90.10
2018-05-14T18:30:15.045Z,90.20
2018-05-14T18:32:48.399Z,90.00
2018-05-14T18:35:20.811Z,90.10
2018-05-14T18:37:49.143Z,90.60
2018-05-14T18:40:16.620Z,90.60
2018-05-14T18:42:44.124Z,90.40
2018-05-14T18:45:12.391Z,89.40
2018-05-14T18:47:39.901Z,89.30
2018-05-14T18:50:07.577Z,90.10
2018-05-14T18:52:35.178Z,90.90
2018-05-14T18:55:02.742Z,91.00
2018-05-14T18:57:30.271Z,91.20
2018-05-14T18:59:58.528Z,91.20
2018-05-14T19:02:26.050Z,91.20
2018-05-14T19:04:53.541Z,91.80
2018-05-14T19:07:21.065Z,91.10
2018-05-14T19:09:48.754Z,90.70
2018-05-14T19:12:16.295Z,91.10
2018-05-14T19:17:48.909Z,91.00
2018-05-14T19:20:16.437Z,91.70
2018-05-14T19:22:49.685Z,91.50
2018-05-14T19:25:17.221Z,91.70
2018-05-14T19:27:50.621Z,92.20
2018-05-14T19:30:18.188Z,92.50
2018-05-14T19:32:45.764Z,93.00
2018-05-14T19:35:19.030Z,92.90
2018-05-14T19:37:46.633Z,92.80
2018-05-14T19:40:20.666Z,92.40
2018-05-14T19:42:48.172Z,92.40
2018-05-14T19:45:15.647Z,92.30
2018-05-14T19:47:43.183Z,92.30
2018-05-14T19:50:10.719Z,92.20
2018-05-14T19:52:38.204Z,92.40
2018-05-14T19:55:05.683Z,92.70
2018-05-14T19:57:33.193Z,92.10
2018-05-14T20:00:00.707Z,92.70
2018-05-14T20:02:28.188Z,92.90
2018-05-14T20:04:56.435Z,92.70
2018-05-14T20:07:23.969Z,92.70
2018-05-14T20:09:51.504Z,92.70
2018-05-14T20:12:19.058Z,92.60
2018-05-14T20:14:46.605Z,92.70
2018-05-14T20:17:14.229Z,92.40
2018-05-14T20:19:41.733Z,92.30
2018-05-14T20:22:09.242Z,92.30
2018-05-14T20:24:36.752Z,92.00
2018-05-14T20:27:04.249Z,92.00
2018-05-14T20:29:31.752Z,91.90
2018-05-14T20:31:59.273Z,91.80
2018-05-14T20:34:26.765Z,92.00
2018-05-14T20:36:55.037Z,92.10
2018-05-14T20:39:23.303Z,92.10
2018-05-14T20:41:51.601Z,92.30
2018-05-14T20:44:19.867Z,92.40
2018-05-14T20:46:48.148Z,92.50
2018-05-14T20:49:16.456Z,92.90
2018-05-14T20:51:43.932Z,92.90
2018-05-14T20:54:11.442Z,92.90
2018-05-14T20:56:39.709Z,93.20
2018-05-14T20:59:07.984Z,93.30
2018-05-14T21:01:36.246Z,93.10
2018-05-14T21:04:03.745Z,93.10
2018-05-14T21:06:31.268Z,93.20
2018-05-14T21:08:58.757Z,92.50
2018-05-14T21:11:26.229Z,91.20
2018-05-14T21:13:53.748Z,90.40
2018-05-14T21:16:22.009Z,91.00
2018-05-14T21:18:49.492Z,91.00
2018-05-14T21:21:17.712Z,92.50
2018-05-14T21:23:45.232Z,92.80
2018-05-14T21:26:13.485Z,91.80
2018-05-14T21:28:41.007Z,91.80
2018-05-14T21:31:08.582Z,91.90
2018-05-14T21:33:36.078Z,92.50
2018-05-14T21:36:03.474Z,92.70
2018-05-14T21:38:30.981Z,93.00
2018-05-14T21:40:58.458Z,93.20
2018-05-14T21:43:26.728Z,92.80
2018-05-14T21:45:54.982Z,92.90
2018-05-14T21:48:22.457Z,92.80
2018-05-14T21:50:50.713Z,93.20
2018-05-14T21:53:18.180Z,93.20
2018-05-14T21:55:45.676Z,93.30
2018-05-14T21:58:13.155Z,93.50
2018-05-14T22:00:40.653Z,93.30
2018-05-14T22:03:08.127Z,93.50
2018-05-14T22:05:47.204Z,93.50
2018-05-14T22:08:14.676Z,93.50
2018-05-14T22:10:42.157Z,93.50
2018-05-14T22:13:09.621Z,93.20
2018-05-14T22:15:37.120Z,93.10
2018-05-14T22:18:04.597Z,93.10
2018-05-14T22:20:32.103Z,92.70
2018-05-14T22:23:00.333Z,93.10
2018-05-14T22:25:27.833Z,93.00
2018-05-14T22:27:55.334Z,93.30
2018-05-14T22:30:22.940Z,92.80
2018-05-14T22:32:50.427Z,92.40
2018-05-14T22:35:17.929Z,92.80
2018-05-14T22:37:45.421Z,92.70
2018-05-14T22:40:12.920Z,93.00
2018-05-14T22:42:40.437Z,93.70
2018-05-14T22:45:07.947Z,93.60
2018-05-14T22:47:35.467Z,93.70
2018-05-14T22:50:03.753Z,93.00
2018-05-14T22:52:31.269Z,93.00
2018-05-14T22:54:58.756Z,92.90
2018-05-14T22:57:27.036Z,93.20
2018-05-14T22:59:55.313Z,93.10
2018-05-14T23:02:23.575Z,93.40
2018-05-14T23:04:51.096Z,93.40
2018-05-14T23:07:18.624Z,94.10
2018-05-14T23:09:46.160Z,93.20
2018-05-14T23:12:14.405Z,93.40
2018-05-14T23:14:41.893Z,93.30
2018-05-14T23:17:09.392Z,93.40
2018-05-14T23:19:36.893Z,93.60
2018-05-14T23:22:04.447Z,93.60
2018-05-14T23:24:31.915Z,93.80
2018-05-14T23:26:59.397Z,93.90
2018-05-14T23:29:27.651Z,93.90
2018-05-14T23:31:55.940Z,93.70
2018-05-14T23:34:24.209Z,93.40
2018-05-14T23:36:52.486Z,93.50
2018-05-14T23:39:19.969Z,93.50
2018-05-14T23:41:47.506Z,93.80
2018-05-14T23:44:15.777Z,93.60
2018-05-14T23:46:43.251Z,93.50
2018-05-14T23:49:11.522Z,93.40
2018-05-14T23:51:39.777Z,93.50
2018-05-14T23:54:07.257Z,93.50
2018-05-14T23:56:35.507Z,93.60
2018-05-14T23:59:03.002Z,93.60
